sensor_id;sensor_type;location;lat;lon;timestamp;P1;durP1;ratioP1;P2;durP2;ratioP2
51459;SDS011;37534;39.772;2.718;2022-10-23T00:01:30;15.95;;;6.63;;
51459;SDS011;37534;39.772;2.718;2022-10-23T00:04:22;17.48;;;7.70;;
51459;SDS011;37534;39.772;2.718;2022-10-23T00:06:49;20.92;;;7.38;;
51459;SDS011;37534;39.772;2.718;2022-10-23T00:09:16;34.92;;;7.22;;
51459;SDS011;37534;39.772;2.718;2022-10-23T00:11:45;24.40;;;7.97;;
51459;SDS011;37534;39.772;2.718;2022-10-23T00:14:15;26.65;;;7.93;;
51459;SDS011;37534;39.772;2.718;2022-10-23T00:16:42;33.22;;;7.03;;
51459;SDS011;37534;39.772;2.718;2022-10-23T00:19:08;16.83;;;7.25;;
51459;SDS011;37534;39.772;2.718;2022-10-23T00:21:34;17.05;;;5.40;;
51459;SDS011;37534;39.772;2.718;2022-10-23T00:24:00;27.05;;;6.72;;
51459;SDS011;37534;39.772;2.718;2022-10-23T00:26:26;13.95;;;6.00;;
51459;SDS011;37534;39.772;2.718;2022-10-23T00:28:52;18.77;;;6.18;;
51459;SDS011;37534;39.772;2.718;2022-10-23T00:31:21;24.38;;;7.20;;
51459;SDS011;37534;39.772;2.718;2022-10-23T00:33:47;18.83;;;5.88;;
51459;SDS011;37534;39.772;2.718;2022-10-23T00:36:14;27.10;;;5.65;;
51459;SDS011;37534;39.772;2.718;2022-10-23T00:38:41;33.13;;;7.50;;
51459;SDS011;37534;39.772;2.718;2022-10-23T00:41:08;30.77;;;7.28;;
51459;SDS011;37534;39.772;2.718;2022-10-23T00:43:53;31.40;;;6.47;;
51459;SDS011;37534;39.772;2.718;2022-10-23T00:46:22;25.15;;;6.35;;
51459;SDS011;37534;39.772;2.718;2022-10-23T00:48:48;50.78;;;8.00;;
51459;SDS011;37534;39.772;2.718;2022-10-23T00:51:13;15.15;;;5.03;;
51459;SDS011;37534;39.772;2.718;2022-10-23T00:53:39;21.95;;;5.97;;
51459;SDS011;37534;39.772;2.718;2022-10-23T00:56:05;22.50;;;7.47;;
51459;SDS011;37534;39.772;2.718;2022-10-23T00:58:31;20.10;;;6.00;;
51459;SDS011;37534;39.772;2.718;2022-10-23T01:00:56;20.30;;;6.63;;
51459;SDS011;37534;39.772;2.718;2022-10-23T01:03:23;21.20;;;6.13;;
51459;SDS011;37534;39.772;2.718;2022-10-23T01:14:32;42.35;;;6.10;;
51459;SDS011;37534;39.772;2.718;2022-10-23T01:17:42;29.50;;;6.80;;
51459;SDS011;37534;39.772;2.718;2022-10-23T01:30:58;29.83;;;7.28;;
51459;SDS011;37534;39.772;2.718;2022-10-23T01:33:28;25.20;;;6.90;;
51459;SDS011;37534;39.772;2.718;2022-10-23T01:36:02;24.92;;;6.55;;
51459;SDS011;37534;39.772;2.718;2022-10-23T01:46:25;26.23;;;6.15;;
51459;SDS011;37534;39.772;2.718;2022-10-23T01:48:53;23.00;;;6.45;;
51459;SDS011;37534;39.772;2.718;2022-10-23T01:51:21;23.85;;;6.03;;
51459;SDS011;37534;39.772;2.718;2022-10-23T01:53:50;18.08;;;5.95;;
51459;SDS011;37534;39.772;2.718;2022-10-23T01:56:21;17.45;;;6.18;;
51459;SDS011;37534;39.772;2.718;2022-10-23T01:58:52;23.38;;;6.00;;
51459;SDS011;37534;39.772;2.718;2022-10-23T02:01:21;15.80;;;6.00;;
51459;SDS011;37534;39.772;2.718;2022-10-23T02:03:50;15.55;;;5.88;;
51459;SDS011;37534;39.772;2.718;2022-10-23T02:06:18;37.80;;;7.25;;
51459;SDS011;37534;39.772;2.718;2022-10-23T02:08:44;34.85;;;8.00;;
51459;SDS011;37534;39.772;2.718;2022-10-23T02:11:12;20.23;;;6.55;;
51459;SDS011;37534;39.772;2.718;2022-10-23T02:22:20;32.13;;;7.18;;
51459;SDS011;37534;39.772;2.718;2022-10-23T02:27:28;23.45;;;6.78;;
51459;SDS011;37534;39.772;2.718;2022-10-23T02:30:06;24.65;;;6.00;;
51459;SDS011;37534;39.772;2.718;2022-10-23T02:32:34;19.80;;;5.55;;
51459;SDS011;37534;39.772;2.718;2022-10-23T02:35:02;16.23;;;5.53;;
51459;SDS011;37534;39.772;2.718;2022-10-23T02:37:28;29.88;;;6.82;;
51459;SDS011;37534;39.772;2.718;2022-10-23T02:39:54;29.60;;;6.28;;
51459;SDS011;37534;39.772;2.718;2022-10-23T02:42:25;26.00;;;6.93;;
51459;SDS011;37534;39.772;2.718;2022-10-23T02:47:54;21.45;;;6.78;;
51459;SDS011;37534;39.772;2.718;2022-10-23T03:01:18;29.90;;;7.03;;
51459;SDS011;37534;39.772;2.718;2022-10-23T03:03:50;31.05;;;7.97;;
51459;SDS011;37534;39.772;2.718;2022-10-23T03:06:17;18.77;;;6.18;;
51459;SDS011;37534;39.772;2.718;2022-10-23T03:08:54;25.55;;;6.15;;
51459;SDS011;37534;39.772;2.718;2022-10-23T03:11:23;30.38;;;6.22;;
51459;SDS011;37534;39.772;2.718;2022-10-23T03:13:49;21.50;;;7.05;;
51459;SDS011;37534;39.772;2.718;2022-10-23T03:16:14;30.92;;;6.25;;
51459;SDS011;37534;39.772;2.718;2022-10-23T03:18:40;20.75;;;5.93;;
51459;SDS011;37534;39.772;2.718;2022-10-23T03:21:05;22.45;;;7.53;;
51459;SDS011;37534;39.772;2.718;2022-10-23T03:23:31;18.17;;;6.78;;
51459;SDS011;37534;39.772;2.718;2022-10-23T03:25:57;34.80;;;6.60;;
51459;SDS011;37534;39.772;2.718;2022-10-23T03:28:22;24.13;;;6.95;;
51459;SDS011;37534;39.772;2.718;2022-10-23T03:30:48;16.50;;;6.32;;
51459;SDS011;37534;39.772;2.718;2022-10-23T03:33:13;24.52;;;6.55;;
51459;SDS011;37534;39.772;2.718;2022-10-23T03:35:39;25.30;;;7.55;;
51459;SDS011;37534;39.772;2.718;2022-10-23T03:38:04;18.95;;;5.85;;
51459;SDS011;37534;39.772;2.718;2022-10-23T03:40:30;28.30;;;8.05;;
51459;SDS011;37534;39.772;2.718;2022-10-23T03:42:55;27.73;;;6.35;;
51459;SDS011;37534;39.772;2.718;2022-10-23T03:45:21;22.23;;;7.05;;
51459;SDS011;37534;39.772;2.718;2022-10-23T03:47:46;16.73;;;5.32;;
51459;SDS011;37534;39.772;2.718;2022-10-23T03:50:12;23.65;;;7.07;;
51459;SDS011;37534;39.772;2.718;2022-10-23T03:52:38;21.02;;;5.20;;
51459;SDS011;37534;39.772;2.718;2022-10-23T03:55:04;24.67;;;6.38;;
51459;SDS011;37534;39.772;2.718;2022-10-23T03:57:30;27.20;;;6.63;;
51459;SDS011;37534;39.772;2.718;2022-10-23T03:59:56;35.53;;;6.80;;
51459;SDS011;37534;39.772;2.718;2022-10-23T04:02:22;16.90;;;5.18;;
51459;SDS011;37534;39.772;2.718;2022-10-23T04:04:48;22.58;;;5.53;;
51459;SDS011;37534;39.772;2.718;2022-10-23T04:07:13;23.50;;;5.97;;
51459;SDS011;37534;39.772;2.718;2022-10-23T04:09:39;15.63;;;5.78;;
51459;SDS011;37534;39.772;2.718;2022-10-23T04:12:05;15.23;;;5.72;;
51459;SDS011;37534;39.772;2.718;2022-10-23T04:14:31;14.35;;;5.60;;
51459;SDS011;37534;39.772;2.718;2022-10-23T04:16:56;15.80;;;5.18;;
51459;SDS011;37534;39.772;2.718;2022-10-23T04:19:22;23.67;;;6.82;;
51459;SDS011;37534;39.772;2.718;2022-10-23T04:21:47;27.90;;;6.75;;
51459;SDS011;37534;39.772;2.718;2022-10-23T04:24:13;31.10;;;6.15;;
51459;SDS011;37534;39.772;2.718;2022-10-23T04:26:38;21.27;;;5.32;;
51459;SDS011;37534;39.772;2.718;2022-10-23T04:29:04;21.88;;;5.25;;
51459;SDS011;37534;39.772;2.718;2022-10-23T04:31:29;21.60;;;4.70;;
51459;SDS011;37534;39.772;2.718;2022-10-23T04:33:55;29.95;;;5.70;;
51459;SDS011;37534;39.772;2.718;2022-10-23T04:36:20;23.80;;;5.07;;
51459;SDS011;37534;39.772;2.718;2022-10-23T04:38:46;22.50;;;5.55;;
51459;SDS011;37534;39.772;2.718;2022-10-23T04:41:12;27.40;;;5.80;;
51459;SDS011;37534;39.772;2.718;2022-10-23T04:43:38;30.55;;;5.88;;
51459;SDS011;37534;39.772;2.718;2022-10-23T04:46:03;22.98;;;4.97;;
51459;SDS011;37534;39.772;2.718;2022-10-23T04:48:29;14.32;;;4.07;;
51459;SDS011;37534;39.772;2.718;2022-10-23T04:50:56;14.27;;;4.80;;
51459;SDS011;37534;39.772;2.718;2022-10-23T04:53:22;20.98;;;4.95;;
51459;SDS011;37534;39.772;2.718;2022-10-23T04:55:52;20.10;;;4.97;;
51459;SDS011;37534;39.772;2.718;2022-10-23T04:58:19;24.47;;;5.67;;
51459;SDS011;37534;39.772;2.718;2022-10-23T05:00:45;11.05;;;4.30;;
51459;SDS011;37534;39.772;2.718;2022-10-23T05:03:11;25.60;;;7.00;;
51459;SDS011;37534;39.772;2.718;2022-10-23T05:05:37;15.38;;;5.00;;
51459;SDS011;37534;39.772;2.718;2022-10-23T05:08:06;17.60;;;4.63;;
51459;SDS011;37534;39.772;2.718;2022-10-23T05:10:31;10.20;;;3.92;;
51459;SDS011;37534;39.772;2.718;2022-10-23T05:12:57;13.48;;;4.55;;
51459;SDS011;37534;39.772;2.718;2022-10-23T05:15:22;22.70;;;5.55;;
51459;SDS011;37534;39.772;2.718;2022-10-23T05:17:48;17.50;;;5.80;;
51459;SDS011;37534;39.772;2.718;2022-10-23T05:20:19;11.70;;;4.60;;
51459;SDS011;37534;39.772;2.718;2022-10-23T05:22:47;19.13;;;5.22;;
51459;SDS011;37534;39.772;2.718;2022-10-23T05:25:16;18.17;;;5.15;;
51459;SDS011;37534;39.772;2.718;2022-10-23T05:27:42;34.50;;;5.50;;
51459;SDS011;37534;39.772;2.718;2022-10-23T05:30:07;31.85;;;5.07;;
51459;SDS011;37534;39.772;2.718;2022-10-23T05:32:34;13.65;;;4.70;;
51459;SDS011;37534;39.772;2.718;2022-10-23T05:35:02;21.42;;;4.93;;
51459;SDS011;37534;39.772;2.718;2022-10-23T05:37:39;10.13;;;4.43;;
51459;SDS011;37534;39.772;2.718;2022-10-23T05:40:07;20.10;;;5.32;;
51459;SDS011;37534;39.772;2.718;2022-10-23T05:42:33;17.48;;;3.75;;
51459;SDS011;37534;39.772;2.718;2022-10-23T05:44:59;11.35;;;4.25;;
51459;SDS011;37534;39.772;2.718;2022-10-23T05:47:24;12.60;;;4.93;;
51459;SDS011;37534;39.772;2.718;2022-10-23T05:49:50;21.75;;;5.10;;
51459;SDS011;37534;39.772;2.718;2022-10-23T05:52:16;19.92;;;4.57;;
51459;SDS011;37534;39.772;2.718;2022-10-23T05:54:43;18.83;;;5.28;;
51459;SDS011;37534;39.772;2.718;2022-10-23T05:57:09;26.35;;;5.47;;
51459;SDS011;37534;39.772;2.718;2022-10-23T05:59:34;13.40;;;5.13;;
51459;SDS011;37534;39.772;2.718;2022-10-23T06:02:00;23.58;;;4.72;;
51459;SDS011;37534;39.772;2.718;2022-10-23T06:04:25;18.98;;;5.13;;
51459;SDS011;37534;39.772;2.718;2022-10-23T06:06:51;23.83;;;5.07;;
51459;SDS011;37534;39.772;2.718;2022-10-23T06:09:16;16.90;;;4.93;;
51459;SDS011;37534;39.772;2.718;2022-10-23T06:11:42;21.15;;;4.90;;
51459;SDS011;37534;39.772;2.718;2022-10-23T06:14:08;11.40;;;4.88;;
51459;SDS011;37534;39.772;2.718;2022-10-23T06:16:34;16.70;;;4.65;;
51459;SDS011;37534;39.772;2.718;2022-10-23T06:18:59;25.33;;;5.15;;
51459;SDS011;37534;39.772;2.718;2022-10-23T06:21:25;25.67;;;4.45;;
51459;SDS011;37534;39.772;2.718;2022-10-23T06:23:51;18.38;;;4.90;;
51459;SDS011;37534;39.772;2.718;2022-10-23T06:26:17;20.92;;;5.45;;
51459;SDS011;37534;39.772;2.718;2022-10-23T06:28:43;9.50;;;3.92;;
51459;SDS011;37534;39.772;2.718;2022-10-23T06:31:10;23.77;;;4.50;;
51459;SDS011;37534;39.772;2.718;2022-10-23T06:33:37;17.55;;;5.43;;
51459;SDS011;37534;39.772;2.718;2022-10-23T06:36:04;14.13;;;4.80;;
51459;SDS011;37534;39.772;2.718;2022-10-23T06:38:32;23.60;;;5.38;;
51459;SDS011;37534;39.772;2.718;2022-10-23T06:41:01;13.57;;;4.78;;
51459;SDS011;37534;39.772;2.718;2022-10-23T06:43:27;10.52;;;4.95;;
51459;SDS011;37534;39.772;2.718;2022-10-23T06:45:53;16.08;;;4.63;;
51459;SDS011;37534;39.772;2.718;2022-10-23T06:48:18;26.95;;;4.75;;
51459;SDS011;37534;39.772;2.718;2022-10-23T06:50:44;19.05;;;5.28;;
51459;SDS011;37534;39.772;2.718;2022-10-23T06:53:09;17.17;;;5.15;;
51459;SDS011;37534;39.772;2.718;2022-10-23T06:55:37;24.33;;;5.70;;
51459;SDS011;37534;39.772;2.718;2022-10-23T06:58:06;22.55;;;5.32;;
51459;SDS011;37534;39.772;2.718;2022-10-23T07:00:36;12.73;;;4.78;;
51459;SDS011;37534;39.772;2.718;2022-10-23T07:03:02;19.55;;;4.88;;
51459;SDS011;37534;39.772;2.718;2022-10-23T07:05:27;13.77;;;4.88;;
51459;SDS011;37534;39.772;2.718;2022-10-23T07:07:53;15.45;;;4.53;;
51459;SDS011;37534;39.772;2.718;2022-10-23T07:10:18;26.67;;;4.63;;
51459;SDS011;37534;39.772;2.718;2022-10-23T07:12:44;22.10;;;4.80;;
51459;SDS011;37534;39.772;2.718;2022-10-23T07:15:11;17.63;;;5.22;;
51459;SDS011;37534;39.772;2.718;2022-10-23T07:17:37;19.75;;;4.60;;
51459;SDS011;37534;39.772;2.718;2022-10-23T07:20:02;14.55;;;4.47;;
51459;SDS011;37534;39.772;2.718;2022-10-23T07:22:28;19.95;;;4.90;;
51459;SDS011;37534;39.772;2.718;2022-10-23T07:24:54;8.50;;;4.45;;
51459;SDS011;37534;39.772;2.718;2022-10-23T07:27:20;20.77;;;5.35;;
51459;SDS011;37534;39.772;2.718;2022-10-23T07:29:48;21.77;;;5.30;;
51459;SDS011;37534;39.772;2.718;2022-10-23T07:32:14;22.27;;;3.88;;
51459;SDS011;37534;39.772;2.718;2022-10-23T07:34:40;14.20;;;5.20;;
51459;SDS011;37534;39.772;2.718;2022-10-23T07:37:05;15.48;;;4.65;;
51459;SDS011;37534;39.772;2.718;2022-10-23T07:39:31;21.63;;;5.07;;
51459;SDS011;37534;39.772;2.718;2022-10-23T07:41:56;21.73;;;4.93;;
51459;SDS011;37534;39.772;2.718;2022-10-23T07:44:22;23.55;;;4.93;;
51459;SDS011;37534;39.772;2.718;2022-10-23T07:46:48;11.00;;;4.43;;
51459;SDS011;37534;39.772;2.718;2022-10-23T07:49:13;18.13;;;4.72;;
51459;SDS011;37534;39.772;2.718;2022-10-23T07:51:39;14.13;;;4.05;;
51459;SDS011;37534;39.772;2.718;2022-10-23T07:54:05;10.85;;;4.47;;
51459;SDS011;37534;39.772;2.718;2022-10-23T07:56:32;17.45;;;4.53;;
51459;SDS011;37534;39.772;2.718;2022-10-23T07:58:57;13.77;;;4.75;;
51459;SDS011;37534;39.772;2.718;2022-10-23T08:01:30;15.40;;;4.57;;
51459;SDS011;37534;39.772;2.718;2022-10-23T08:04:01;16.60;;;4.45;;
51459;SDS011;37534;39.772;2.718;2022-10-23T08:06:27;13.05;;;3.58;;
51459;SDS011;37534;39.772;2.718;2022-10-23T08:08:53;9.45;;;3.70;;
51459;SDS011;37534;39.772;2.718;2022-10-23T08:11:19;12.73;;;4.40;;
51459;SDS011;37534;39.772;2.718;2022-10-23T08:13:53;31.23;;;5.32;;
51459;SDS011;37534;39.772;2.718;2022-10-23T08:16:20;23.65;;;4.70;;
51459;SDS011;37534;39.772;2.718;2022-10-23T08:18:48;12.63;;;4.70;;
51459;SDS011;37534;39.772;2.718;2022-10-23T08:21:14;27.58;;;5.40;;
51459;SDS011;37534;39.772;2.718;2022-10-23T08:23:41;21.40;;;4.20;;
51459;SDS011;37534;39.772;2.718;2022-10-23T08:26:07;22.13;;;4.95;;
51459;SDS011;37534;39.772;2.718;2022-10-23T08:28:33;22.23;;;4.93;;
51459;SDS011;37534;39.772;2.718;2022-10-23T08:31:05;7.50;;;3.95;;
51459;SDS011;37534;39.772;2.718;2022-10-23T08:33:35;14.13;;;4.15;;
51459;SDS011;37534;39.772;2.718;2022-10-23T08:36:01;15.18;;;4.40;;
51459;SDS011;37534;39.772;2.718;2022-10-23T08:38:27;22.08;;;4.88;;
51459;SDS011;37534;39.772;2.718;2022-10-23T08:40:53;10.90;;;3.90;;
51459;SDS011;37534;39.772;2.718;2022-10-23T08:43:21;15.77;;;4.50;;
51459;SDS011;37534;39.772;2.718;2022-10-23T08:45:59;16.67;;;4.53;;
51459;SDS011;37534;39.772;2.718;2022-10-23T08:48:32;16.15;;;4.75;;
51459;SDS011;37534;39.772;2.718;2022-10-23T08:51:13;25.45;;;5.43;;
51459;SDS011;37534;39.772;2.718;2022-10-23T08:53:51;10.98;;;3.97;;
51459;SDS011;37534;39.772;2.718;2022-10-23T08:56:23;17.95;;;4.25;;
51459;SDS011;37534;39.772;2.718;2022-10-23T09:04:27;16.35;;;3.67;;
51459;SDS011;37534;39.772;2.718;2022-10-23T09:07:04;11.65;;;3.88;;
51459;SDS011;37534;39.772;2.718;2022-10-23T09:12:40;19.27;;;4.57;;
51459;SDS011;37534;39.772;2.718;2022-10-23T09:18:06;17.05;;;4.28;;
51459;SDS011;37534;39.772;2.718;2022-10-23T09:20:38;25.70;;;5.05;;
51459;SDS011;37534;39.772;2.718;2022-10-23T09:23:16;16.83;;;4.20;;
51459;SDS011;37534;39.772;2.718;2022-10-23T09:25:45;15.82;;;4.60;;
51459;SDS011;37534;39.772;2.718;2022-10-23T09:28:17;11.93;;;4.40;;
51459;SDS011;37534;39.772;2.718;2022-10-23T09:30:48;15.23;;;4.35;;
51459;SDS011;37534;39.772;2.718;2022-10-23T09:33:16;19.45;;;5.43;;
51459;SDS011;37534;39.772;2.718;2022-10-23T09:40:58;12.43;;;4.65;;
51459;SDS011;37534;39.772;2.718;2022-10-23T09:43:25;20.45;;;4.75;;
51459;SDS011;37534;39.772;2.718;2022-10-23T09:45:56;27.48;;;4.80;;
51459;SDS011;37534;39.772;2.718;2022-10-23T09:48:23;13.73;;;5.10;;
51459;SDS011;37534;39.772;2.718;2022-10-23T09:50:51;19.02;;;4.30;;
51459;SDS011;37534;39.772;2.718;2022-10-23T09:53:38;18.23;;;3.90;;
51459;SDS011;37534;39.772;2.718;2022-10-23T09:59:00;17.90;;;4.60;;
51459;SDS011;37534;39.772;2.718;2022-10-23T10:01:33;13.85;;;5.03;;
51459;SDS011;37534;39.772;2.718;2022-10-23T10:04:09;28.42;;;6.25;;
51459;SDS011;37534;39.772;2.718;2022-10-23T10:06:34;16.05;;;4.60;;
51459;SDS011;37534;39.772;2.718;2022-10-23T10:09:13;28.90;;;5.82;;
51459;SDS011;37534;39.772;2.718;2022-10-23T10:11:43;21.75;;;5.65;;
51459;SDS011;37534;39.772;2.718;2022-10-23T10:17:14;15.98;;;4.65;;
51459;SDS011;37534;39.772;2.718;2022-10-23T10:26:22;20.30;;;4.82;;
51459;SDS011;37534;39.772;2.718;2022-10-23T10:28:30;26.83;;;5.65;;
51459;SDS011;37534;39.772;2.718;2022-10-23T10:31:23;21.98;;;5.18;;
51459;SDS011;37534;39.772;2.718;2022-10-23T10:44:42;18.90;;;5.47;;
51459;SDS011;37534;39.772;2.718;2022-10-23T10:52:22;9.07;;;3.88;;
51459;SDS011;37534;39.772;2.718;2022-10-23T10:57:43;17.40;;;5.15;;
51459;SDS011;37534;39.772;2.718;2022-10-23T11:00:30;17.17;;;4.40;;
51459;SDS011;37534;39.772;2.718;2022-10-23T11:05:57;31.33;;;4.65;;
51459;SDS011;37534;39.772;2.718;2022-10-23T11:08:35;16.25;;;4.25;;
51459;SDS011;37534;39.772;2.718;2022-10-23T11:13:47;13.13;;;4.45;;
51459;SDS011;37534;39.772;2.718;2022-10-23T11:16:26;17.73;;;4.55;;
51459;SDS011;37534;39.772;2.718;2022-10-23T11:19:03;22.67;;;4.68;;
51459;SDS011;37534;39.772;2.718;2022-10-23T11:27:02;13.93;;;4.47;;
51459;SDS011;37534;39.772;2.718;2022-10-23T11:32:28;17.40;;;4.88;;
51459;SDS011;37534;39.772;2.718;2022-10-23T11:35:04;19.48;;;4.60;;
51459;SDS011;37534;39.772;2.718;2022-10-23T11:37:56;10.68;;;3.88;;
51459;SDS011;37534;39.772;2.718;2022-10-23T11:40:36;14.65;;;5.07;;
51459;SDS011;37534;39.772;2.718;2022-10-23T11:43:08;14.13;;;3.80;;
51459;SDS011;37534;39.772;2.718;2022-10-23T11:45:35;16.10;;;4.97;;
51459;SDS011;37534;39.772;2.718;2022-10-23T11:48:19;17.15;;;4.40;;
51459;SDS011;37534;39.772;2.718;2022-10-23T11:58:46;19.50;;;5.50;;
51459;SDS011;37534;39.772;2.718;2022-10-23T12:01:18;14.38;;;4.43;;
51459;SDS011;37534;39.772;2.718;2022-10-23T12:06:38;24.13;;;5.70;;
51459;SDS011;37534;39.772;2.718;2022-10-23T12:14:35;13.57;;;4.05;;
51459;SDS011;37534;39.772;2.718;2022-10-23T12:17:17;24.90;;;4.57;;
51459;SDS011;37534;39.772;2.718;2022-10-23T12:19:48;17.13;;;4.82;;
51459;SDS011;37534;39.772;2.718;2022-10-23T12:22:18;21.08;;;5.03;;
51459;SDS011;37534;39.772;2.718;2022-10-23T12:24:52;18.10;;;4.05;;
51459;SDS011;37534;39.772;2.718;2022-10-23T12:30:13;14.07;;;3.85;;
51459;SDS011;37534;39.772;2.718;2022-10-23T12:38:49;26.52;;;4.43;;
51459;SDS011;37534;39.772;2.718;2022-10-23T12:41:21;18.23;;;4.63;;
51459;SDS011;37534;39.772;2.718;2022-10-23T12:43:57;18.50;;;4.45;;
51459;SDS011;37534;39.772;2.718;2022-10-23T12:46:30;21.05;;;5.38;;
51459;SDS011;37534;39.772;2.718;2022-10-23T12:49:14;15.65;;;4.10;;
51459;SDS011;37534;39.772;2.718;2022-10-23T12:51:42;19.80;;;5.18;;
51459;SDS011;37534;39.772;2.718;2022-10-23T12:54:18;18.00;;;5.10;;
51459;SDS011;37534;39.772;2.718;2022-10-23T12:56:45;17.58;;;4.50;;
51459;SDS011;37534;39.772;2.718;2022-10-23T12:59:44;20.10;;;4.90;;
51459;SDS011;37534;39.772;2.718;2022-10-23T13:02:12;12.65;;;4.50;;
51459;SDS011;37534;39.772;2.718;2022-10-23T13:08:09;18.98;;;6.20;;
51459;SDS011;37534;39.772;2.718;2022-10-23T13:10:35;11.60;;;4.57;;
51459;SDS011;37534;39.772;2.718;2022-10-23T13:13:02;31.73;;;5.28;;
51459;SDS011;37534;39.772;2.718;2022-10-23T13:15:39;23.27;;;5.88;;
51459;SDS011;37534;39.772;2.718;2022-10-23T13:18:07;19.48;;;5.22;;
51459;SDS011;37534;39.772;2.718;2022-10-23T13:20:34;14.60;;;4.72;;
51459;SDS011;37534;39.772;2.718;2022-10-23T13:29:32;14.90;;;5.00;;
51459;SDS011;37534;39.772;2.718;2022-10-23T13:32:08;19.58;;;5.20;;
51459;SDS011;37534;39.772;2.718;2022-10-23T13:34:52;9.10;;;4.05;;
51459;SDS011;37534;39.772;2.718;2022-10-23T13:37:29;17.92;;;4.78;;
51459;SDS011;37534;39.772;2.718;2022-10-23T13:39:58;17.98;;;5.18;;
51459;SDS011;37534;39.772;2.718;2022-10-23T13:42:25;19.43;;;4.13;;
51459;SDS011;37534;39.772;2.718;2022-10-23T13:44:50;18.20;;;5.35;;
51459;SDS011;37534;39.772;2.718;2022-10-23T13:47:16;11.93;;;4.97;;
51459;SDS011;37534;39.772;2.718;2022-10-23T13:49:42;15.50;;;3.92;;
51459;SDS011;37534;39.772;2.718;2022-10-23T13:52:08;14.60;;;4.78;;
51459;SDS011;37534;39.772;2.718;2022-10-23T13:54:37;15.20;;;4.32;;
51459;SDS011;37534;39.772;2.718;2022-10-23T13:57:02;14.43;;;5.22;;
51459;SDS011;37534;39.772;2.718;2022-10-23T13:59:28;22.30;;;4.85;;
51459;SDS011;37534;39.772;2.718;2022-10-23T14:01:53;12.18;;;4.25;;
51459;SDS011;37534;39.772;2.718;2022-10-23T14:04:19;18.63;;;4.90;;
51459;SDS011;37534;39.772;2.718;2022-10-23T14:06:45;25.90;;;5.60;;
51459;SDS011;37534;39.772;2.718;2022-10-23T14:09:13;23.98;;;4.45;;
51459;SDS011;37534;39.772;2.718;2022-10-23T14:11:41;15.53;;;4.43;;
51459;SDS011;37534;39.772;2.718;2022-10-23T14:14:08;12.13;;;4.93;;
51459;SDS011;37534;39.772;2.718;2022-10-23T14:16:33;14.60;;;4.28;;
51459;SDS011;37534;39.772;2.718;2022-10-23T14:18:59;15.02;;;4.68;;
51459;SDS011;37534;39.772;2.718;2022-10-23T14:31:38;19.00;;;4.95;;
51459;SDS011;37534;39.772;2.718;2022-10-23T14:34:03;24.55;;;5.15;;
51459;SDS011;37534;39.772;2.718;2022-10-23T14:36:29;12.88;;;4.38;;
51459;SDS011;37534;39.772;2.718;2022-10-23T14:38:55;12.52;;;4.95;;
51459;SDS011;37534;39.772;2.718;2022-10-23T14:41:24;28.17;;;5.95;;
51459;SDS011;37534;39.772;2.718;2022-10-23T14:43:50;15.93;;;4.45;;
51459;SDS011;37534;39.772;2.718;2022-10-23T14:46:18;23.77;;;5.18;;
51459;SDS011;37534;39.772;2.718;2022-10-23T14:48:46;28.65;;;6.63;;
51459;SDS011;37534;39.772;2.718;2022-10-23T14:51:22;9.32;;;4.07;;
51459;SDS011;37534;39.772;2.718;2022-10-23T14:53:56;28.27;;;5.65;;
51459;SDS011;37534;39.772;2.718;2022-10-23T14:56:25;14.20;;;4.82;;
51459;SDS011;37534;39.772;2.718;2022-10-23T14:58:52;22.33;;;4.90;;
51459;SDS011;37534;39.772;2.718;2022-10-23T15:01:18;25.85;;;5.95;;
51459;SDS011;37534;39.772;2.718;2022-10-23T15:03:43;15.77;;;5.13;;
51459;SDS011;37534;39.772;2.718;2022-10-23T15:06:09;15.82;;;4.50;;
51459;SDS011;37534;39.772;2.718;2022-10-23T15:08:34;17.25;;;5.28;;
51459;SDS011;37534;39.772;2.718;2022-10-23T15:11:01;18.23;;;5.68;;
51459;SDS011;37534;39.772;2.718;2022-10-23T15:13:27;21.50;;;5.45;;
51459;SDS011;37534;39.772;2.718;2022-10-23T15:16:03;19.17;;;5.60;;
51459;SDS011;37534;39.772;2.718;2022-10-23T15:18:31;21.95;;;4.57;;
51459;SDS011;37534;39.772;2.718;2022-10-23T15:20:57;20.25;;;5.53;;
51459;SDS011;37534;39.772;2.718;2022-10-23T15:23:22;19.38;;;5.68;;
51459;SDS011;37534;39.772;2.718;2022-10-23T15:25:55;11.13;;;4.82;;
51459;SDS011;37534;39.772;2.718;2022-10-23T15:28:22;18.98;;;5.38;;
51459;SDS011;37534;39.772;2.718;2022-10-23T15:30:48;16.73;;;4.15;;
51459;SDS011;37534;39.772;2.718;2022-10-23T15:33:13;16.27;;;5.25;;
51459;SDS011;37534;39.772;2.718;2022-10-23T15:35:39;15.80;;;4.78;;
51459;SDS011;37534;39.772;2.718;2022-10-23T15:38:04;24.40;;;5.50;;
51459;SDS011;37534;39.772;2.718;2022-10-23T15:40:30;16.25;;;4.88;;
51459;SDS011;37534;39.772;2.718;2022-10-23T15:42:55;22.80;;;6.30;;
51459;SDS011;37534;39.772;2.718;2022-10-23T15:45:21;17.33;;;4.60;;
51459;SDS011;37534;39.772;2.718;2022-10-23T15:47:46;15.88;;;5.13;;
51459;SDS011;37534;39.772;2.718;2022-10-23T15:50:12;30.73;;;6.07;;
51459;SDS011;37534;39.772;2.718;2022-10-23T15:52:38;23.20;;;4.85;;
51459;SDS011;37534;39.772;2.718;2022-10-23T15:55:14;21.55;;;5.07;;
51459;SDS011;37534;39.772;2.718;2022-10-23T15:57:40;29.20;;;4.45;;
51459;SDS011;37534;39.772;2.718;2022-10-23T16:00:06;16.45;;;5.15;;
51459;SDS011;37534;39.772;2.718;2022-10-23T16:02:33;27.48;;;5.05;;
51459;SDS011;37534;39.772;2.718;2022-10-23T16:04:59;19.55;;;5.13;;
51459;SDS011;37534;39.772;2.718;2022-10-23T16:07:24;16.67;;;5.03;;
51459;SDS011;37534;39.772;2.718;2022-10-23T16:09:50;26.83;;;4.07;;
51459;SDS011;37534;39.772;2.718;2022-10-23T16:12:15;17.67;;;5.18;;
51459;SDS011;37534;39.772;2.718;2022-10-23T16:14:42;22.55;;;6.68;;
51459;SDS011;37534;39.772;2.718;2022-10-23T16:17:08;18.08;;;4.53;;
51459;SDS011;37534;39.772;2.718;2022-10-23T16:19:34;20.88;;;4.85;;
51459;SDS011;37534;39.772;2.718;2022-10-23T16:22:00;27.23;;;5.82;;
51459;SDS011;37534;39.772;2.718;2022-10-23T16:24:27;14.93;;;5.03;;
51459;SDS011;37534;39.772;2.718;2022-10-23T16:26:53;35.47;;;6.55;;
51459;SDS011;37534;39.772;2.718;2022-10-23T16:29:20;16.30;;;5.80;;
51459;SDS011;37534;39.772;2.718;2022-10-23T16:31:47;18.17;;;4.55;;
51459;SDS011;37534;39.772;2.718;2022-10-23T16:34:13;16.45;;;5.63;;
51459;SDS011;37534;39.772;2.718;2022-10-23T16:36:39;22.60;;;5.93;;
51459;SDS011;37534;39.772;2.718;2022-10-23T16:39:06;17.88;;;5.45;;
51459;SDS011;37534;39.772;2.718;2022-10-23T16:41:33;21.08;;;5.53;;
51459;SDS011;37534;39.772;2.718;2022-10-23T16:43:59;26.98;;;5.45;;
51459;SDS011;37534;39.772;2.718;2022-10-23T16:46:25;14.82;;;5.43;;
51459;SDS011;37534;39.772;2.718;2022-10-23T16:48:51;22.50;;;5.63;;
51459;SDS011;37534;39.772;2.718;2022-10-23T16:51:18;20.77;;;6.25;;
51459;SDS011;37534;39.772;2.718;2022-10-23T16:53:45;16.77;;;5.22;;
51459;SDS011;37534;39.772;2.718;2022-10-23T16:56:13;27.25;;;5.78;;
51459;SDS011;37534;39.772;2.718;2022-10-23T16:58:40;23.35;;;5.15;;
51459;SDS011;37534;39.772;2.718;2022-10-23T17:03:43;24.33;;;5.38;;
51459;SDS011;37534;39.772;2.718;2022-10-23T17:06:13;25.98;;;5.05;;
51459;SDS011;37534;39.772;2.718;2022-10-23T17:08:41;15.75;;;5.65;;
51459;SDS011;37534;39.772;2.718;2022-10-23T17:11:14;18.55;;;5.32;;
51459;SDS011;37534;39.772;2.718;2022-10-23T17:13:43;23.45;;;6.38;;
51459;SDS011;37534;39.772;2.718;2022-10-23T17:16:17;20.65;;;7.13;;
51459;SDS011;37534;39.772;2.718;2022-10-23T17:18:45;17.00;;;5.28;;
51459;SDS011;37534;39.772;2.718;2022-10-23T17:21:12;24.38;;;6.00;;
51459;SDS011;37534;39.772;2.718;2022-10-23T17:23:39;19.02;;;5.75;;
51459;SDS011;37534;39.772;2.718;2022-10-23T17:26:06;45.53;;;6.70;;